Alum Creek, West Virginia
Current Conditions -  °F | °C
As of 1:54 PM on Saturday 25 Oct 2014 (Local Time) from KCRW Reporting Station
Broken Clouds Broken Clouds  
Wind Chill: 66°   Ceiling: 8500
Heat Index: 66°   Visibility: 10mi
Dew Point: 48°   Wind: 10mph
Humidity: 52%   Direction: 220°SW
Pressure: 29.98"   Gusts: NA
Location:  38.28°N, 81.84°W
Report Text: KCRW 251754Z 22009KT 10SM SCT065 BKN085 BKN250 19/09 A2998 RMK AO2 SLP151 T01890089 10189 20022 58024 $
Loading
Personal Weather Stations






























Interactive Weather Map
Tropical Storm Tracking
New forecast layout! Learn more

10-Day Weather Forecast

Advertisements
Track Severe Weather on mobile